Time;durP1;ratioP1;P1;durP2;ratioP2;P2;SDS_P1;SDS_P2;PMS_P1;PMS_P2;Temp;Humidity;BMP_temperature;BMP_pressure;BME280_temperature;BME280_humidity;BME280_pressure;Samples;Min_cycle;Max_cycle;Signal;HPM_P1;HPM_P2
2023/10/30 00:02:19;;;;;;;37.55;3.50;;;12.30;99.90;;;;;;4406580;32;20065;-60
2023/10/30 00:04:45;;;;;;;0.30;0.30;;;12.30;99.90;;;;;;4406412;32;20057;-60
2023/10/30 00:07:10;;;;;;;0.40;0.40;;;12.30;99.90;;;;;;4404985;32;20768;-61
2023/10/30 00:09:35;;;;;;;0.50;0.50;;;12.30;99.90;;;;;;4407989;32;20066;-60
2023/10/30 00:12:01;;;;;;;0.28;0.28;;;12.30;99.90;;;;;;4405465;32;20077;-60
2023/10/30 00:14:27;;;;;;;0.30;0.30;;;12.40;99.90;;;;;;4405115;32;20098;-60
2023/10/30 00:16:52;;;;;;;0.40;0.40;;;12.40;99.90;;;;;;4402124;32;20085;-60
2023/10/30 00:19:18;;;;;;;0.20;0.20;;;12.40;99.90;;;;;;4404886;32;20069;-60
2023/10/30 00:21:43;;;;;;;0.30;0.30;;;12.40;99.90;;;;;;4404933;32;20078;-60
2023/10/30 00:24:09;;;;;;;0.40;0.40;;;12.40;99.90;;;;;;4406809;32;20078;-60
2023/10/30 00:26:35;;;;;;;3.85;0.60;;;12.50;99.90;;;;;;4404208;32;20066;-61
2023/10/30 00:29:01;;;;;;;0.40;0.40;;;12.40;99.90;;;;;;4403874;32;20095;-59
2023/10/30 00:31:27;;;;;;;0.40;0.40;;;12.50;99.90;;;;;;4407076;32;20069;-59
2023/10/30 00:33:53;;;;;;;0.30;0.30;;;12.40;99.90;;;;;;4404081;32;20073;-61
2023/10/30 00:36:19;;;;;;;0.30;0.30;;;12.40;99.90;;;;;;4403323;32;20093;-62
2023/10/30 00:38:45;;;;;;;0.30;0.30;;;12.50;99.90;;;;;;4402477;32;20094;-59
2023/10/30 00:41:11;;;;;;;0.75;0.75;;;12.50;99.90;;;;;;4396906;32;20120;-60
2023/10/30 00:43:37;;;;;;;0.77;0.50;;;12.40;99.90;;;;;;4406520;32;20137;-61
2023/10/30 00:46:04;;;;;;;0.30;0.30;;;12.40;99.90;;;;;;4402822;32;20062;-60
2023/10/30 00:48:29;;;;;;;0.30;0.30;;;12.40;99.90;;;;;;4401213;32;20133;-60
2023/10/30 00:50:55;;;;;;;0.30;0.30;;;12.40;99.90;;;;;;4401967;32;20135;-60
2023/10/30 00:53:21;;;;;;;0.40;0.40;;;12.40;99.90;;;;;;4404344;32;20087;-60
2023/10/30 00:55:50;;;;;;;0.40;0.40;;;12.40;99.90;;;;;;4402874;32;20124;-60
2023/10/30 00:58:15;;;;;;;0.37;0.37;;;12.40;99.90;;;;;;4397098;32;20061;-59
2023/10/30 01:00:41;;;;;;;0.30;0.30;;;12.40;99.90;;;;;;4399234;32;20074;-60
2023/10/30 01:03:06;;;;;;;0.40;0.40;;;12.40;99.90;;;;;;4406475;32;20054;-60
2023/10/30 01:05:32;;;;;;;0.47;0.47;;;12.40;99.90;;;;;;4405382;32;20077;-58
2023/10/30 01:07:57;;;;;;;0.30;0.30;;;12.40;99.90;;;;;;4404968;32;20071;-59
2023/10/30 01:10:23;;;;;;;0.30;0.30;;;12.30;99.90;;;;;;4405156;32;20073;-60
2023/10/30 01:12:48;;;;;;;0.40;0.40;;;12.40;99.90;;;;;;4404833;32;20074;-60
2023/10/30 01:15:15;;;;;;;0.37;0.37;;;12.30;99.90;;;;;;4406117;32;20087;-60
2023/10/30 01:17:40;;;;;;;0.25;0.25;;;12.30;99.90;;;;;;4402331;32;20062;-60
2023/10/30 01:20:07;;;;;;;0.30;0.30;;;12.30;99.90;;;;;;4405367;32;20081;-60
2023/10/30 01:22:32;;;;;;;0.43;0.43;;;12.40;99.90;;;;;;4405939;32;20086;-59
2023/10/30 01:24:57;;;;;;;0.30;0.30;;;12.40;99.90;;;;;;4405033;32;20066;-59
2023/10/30 01:27:23;;;;;;;0.20;0.20;;;12.40;99.90;;;;;;4400542;32;20065;-59
2023/10/30 01:29:48;;;;;;;5.57;0.50;;;12.40;99.90;;;;;;4401116;32;20120;-60
2023/10/30 01:32:14;;;;;;;0.50;0.50;;;12.40;99.90;;;;;;4402732;32;20160;-60
2023/10/30 01:34:40;;;;;;;0.30;0.30;;;12.40;99.90;;;;;;4404753;32;20082;-60
2023/10/30 01:37:05;;;;;;;0.30;0.30;;;12.40;99.90;;;;;;4398323;32;20810;-61
2023/10/30 01:39:31;;;;;;;0.73;0.73;;;12.40;99.90;;;;;;4403964;32;20102;-59
2023/10/30 01:41:56;;;;;;;1.10;0.73;;;12.40;99.90;;;;;;4402799;32;20062;-60
2023/10/30 01:44:21;;;;;;;2.00;0.70;;;12.40;99.90;;;;;;4402325;32;20071;-60
2023/10/30 01:46:47;;;;;;;0.40;0.40;;;12.40;99.90;;;;;;4402615;32;20479;-60
2023/10/30 01:49:12;;;;;;;0.40;0.40;;;12.40;99.90;;;;;;4389457;32;20482;-61
2023/10/30 01:51:39;;;;;;;0.30;0.30;;;12.40;99.90;;;;;;4405448;32;20085;-60
2023/10/30 01:54:04;;;;;;;0.40;0.40;;;12.40;99.90;;;;;;4406918;32;20089;-60
2023/10/30 01:56:32;;;;;;;0.30;0.30;;;12.40;99.90;;;;;;4401957;32;20150;-61
2023/10/30 01:58:58;;;;;;;0.40;0.40;;;12.40;99.90;;;;;;4400591;32;20081;-60
2023/10/30 02:01:25;;;;;;;0.95;0.88;;;12.40;99.90;;;;;;4406033;32;20062;-61
2023/10/30 02:03:52;;;;;;;0.30;0.30;;;12.40;99.90;;;;;;4402646;32;20130;-61
2023/10/30 02:06:17;;;;;;;0.30;0.30;;;12.40;99.90;;;;;;4405780;32;20069;-61
2023/10/30 02:08:43;;;;;;;0.40;0.40;;;12.40;99.90;;;;;;4404283;32;20498;-60
2023/10/30 02:11:09;;;;;;;19.65;1.20;;;12.40;99.90;;;;;;4405554;32;20082;-62
2023/10/30 02:13:34;;;;;;;0.30;0.30;;;12.40;99.90;;;;;;4404882;32;20120;-61
2023/10/30 02:16:00;;;;;;;0.30;0.30;;;12.30;99.90;;;;;;4407908;32;20062;-61
2023/10/30 02:18:25;;;;;;;0.30;0.30;;;12.30;99.90;;;;;;4402030;32;20591;-61
2023/10/30 02:20:51;;;;;;;0.30;0.30;;;12.40;99.90;;;;;;4404345;32;21366;-61
2023/10/30 02:23:16;;;;;;;0.40;0.40;;;12.40;99.90;;;;;;4405244;32;20420;-60
2023/10/30 02:25:42;;;;;;;0.30;0.30;;;12.40;99.90;;;;;;4404684;32;20125;-61
2023/10/30 02:28:08;;;;;;;0.30;0.30;;;12.30;99.90;;;;;;4405113;32;20512;-60
2023/10/30 02:30:33;;;;;;;0.30;0.30;;;12.40;99.90;;;;;;4407458;32;20065;-61
2023/10/30 02:32:58;;;;;;;2.83;0.70;;;12.30;99.90;;;;;;4404837;32;20157;-60
2023/10/30 02:35:24;;;;;;;0.47;0.47;;;12.30;99.90;;;;;;4404223;32;20410;-61
2023/10/30 02:37:50;;;;;;;0.50;0.50;;;12.30;99.90;;;;;;4397744;32;20078;-61
2023/10/30 02:40:15;;;;;;;0.30;0.30;;;12.30;99.90;;;;;;4402173;32;20173;-60
2023/10/30 02:42:41;;;;;;;0.30;0.30;;;12.30;99.90;;;;;;4403842;32;20849;-60
2023/10/30 02:45:07;;;;;;;0.32;0.32;;;12.30;99.90;;;;;;4407482;32;20521;-60
2023/10/30 02:47:34;;;;;;;4.20;1.02;;;12.30;99.90;;;;;;4404329;32;20133;-61
2023/10/30 02:50:01;;;;;;;0.35;0.35;;;12.30;99.90;;;;;;4403162;32;20075;-60
2023/10/30 02:52:28;;;;;;;0.52;0.52;;;12.30;99.90;;;;;;4402773;32;20070;-61
2023/10/30 02:54:53;;;;;;;0.50;0.50;;;12.30;99.90;;;;;;4406044;32;20075;-59
2023/10/30 02:57:18;;;;;;;0.30;0.30;;;12.30;99.90;;;;;;4400505;32;20114;-61
2023/10/30 02:59:44;;;;;;;6.57;0.52;;;12.30;99.90;;;;;;4404088;32;20100;-60
2023/10/30 03:02:09;;;;;;;0.40;0.40;;;12.30;99.90;;;;;;4407595;32;20471;-61
2023/10/30 03:04:35;;;;;;;1.08;0.60;;;12.30;99.90;;;;;;4404981;32;20065;-61
2023/10/30 03:07:01;;;;;;;0.30;0.30;;;12.30;99.90;;;;;;4405887;32;20102;-61
2023/10/30 03:09:29;;;;;;;0.40;0.40;;;12.40;99.90;;;;;;4402275;32;20549;-60
2023/10/30 03:11:55;;;;;;;0.30;0.30;;;12.30;99.90;;;;;;4403900;32;20074;-60
2023/10/30 03:14:20;;;;;;;0.30;0.30;;;12.30;99.90;;;;;;4407485;32;20074;-61
2023/10/30 03:16:46;;;;;;;0.30;0.30;;;12.30;99.90;;;;;;4401867;32;20125;-62
2023/10/30 03:19:11;;;;;;;0.30;0.30;;;12.20;99.90;;;;;;4403961;32;20086;-60
2023/10/30 03:21:37;;;;;;;0.30;0.30;;;12.30;99.90;;;;;;4408104;32;20109;-61
2023/10/30 03:24:03;;;;;;;0.40;0.40;;;12.30;99.90;;;;;;4406530;32;20054;-60
2023/10/30 03:26:29;;;;;;;0.47;0.47;;;12.30;99.90;;;;;;4389736;32;20081;-60
2023/10/30 03:28:55;;;;;;;0.52;0.50;;;12.30;99.90;;;;;;4403001;32;20418;-60
2023/10/30 03:31:20;;;;;;;0.40;0.40;;;12.30;99.90;;;;;;4401565;32;20082;-60
2023/10/30 03:33:46;;;;;;;2.92;0.62;;;12.30;99.90;;;;;;4404870;32;20070;-59
2023/10/30 03:36:18;;;;;;;0.50;0.50;;;12.30;99.90;;;;;;4405113;32;20090;-61
2023/10/30 03:38:44;;;;;;;0.50;0.50;;;12.30;99.90;;;;;;4402837;32;20124;-60
2023/10/30 03:41:09;;;;;;;0.52;0.52;;;12.30;99.90;;;;;;4406450;32;20137;-61
2023/10/30 03:43:35;;;;;;;0.40;0.40;;;12.20;99.90;;;;;;4406756;32;20058;-61
2023/10/30 03:46:00;;;;;;;0.30;0.30;;;12.30;99.90;;;;;;4409599;32;20069;-60
2023/10/30 03:48:26;;;;;;;0.37;0.37;;;12.30;99.90;;;;;;4403907;32;20062;-61
2023/10/30 03:50:51;;;;;;;0.30;0.30;;;12.30;99.90;;;;;;4405619;32;20086;-61
2023/10/30 03:53:17;;;;;;;0.50;0.50;;;12.30;99.90;;;;;;4406189;32;20070;-61
2023/10/30 03:55:42;;;;;;;0.30;0.30;;;12.30;99.90;;;;;;4404499;32;20094;-60
2023/10/30 03:58:07;;;;;;;0.50;0.50;;;12.30;99.90;;;;;;4400279;32;20073;-59
2023/10/30 04:00:33;;;;;;;0.60;0.60;;;12.30;99.90;;;;;;4406151;32;20065;-60
2023/10/30 04:02:58;;;;;;;0.40;0.40;;;12.20;99.90;;;;;;4404059;32;20450;-59
2023/10/30 04:05:24;;;;;;;0.30;0.30;;;12.30;99.90;;;;;;4402498;32;20085;-60
2023/10/30 04:07:49;;;;;;;3.20;1.40;;;12.20;99.90;;;;;;4407112;32;20054;-60
2023/10/30 04:10:15;;;;;;;0.40;0.40;;;12.20;99.90;;;;;;4400183;32;20121;-61
2023/10/30 04:12:40;;;;;;;0.30;0.30;;;12.20;99.90;;;;;;4392529;32;20082;-60
2023/10/30 04:15:07;;;;;;;0.30;0.30;;;12.10;99.90;;;;;;4406078;32;20086;-60
2023/10/30 04:17:32;;;;;;;31.25;1.40;;;12.20;99.90;;;;;;4394728;32;20514;-59
2023/10/30 04:19:57;;;;;;;0.40;0.40;;;12.20;99.90;;;;;;4405196;32;20069;-60
2023/10/30 04:22:23;;;;;;;0.50;0.50;;;12.20;99.90;;;;;;4404627;32;20080;-60
2023/10/30 04:24:48;;;;;;;0.35;0.35;;;12.20;99.90;;;;;;4406841;32;20089;-60
2023/10/30 04:27:14;;;;;;;0.57;0.57;;;12.10;99.90;;;;;;4403455;32;20754;-60
2023/10/30 04:29:41;;;;;;;0.30;0.30;;;12.20;99.90;;;;;;4403363;32;20073;-60
2023/10/30 04:32:07;;;;;;;0.40;0.40;;;12.20;99.90;;;;;;4403609;32;20086;-60
2023/10/30 04:34:32;;;;;;;0.30;0.30;;;12.10;99.90;;;;;;4407546;32;20184;-61
2023/10/30 04:36:58;;;;;;;0.40;0.40;;;12.10;99.90;;;;;;4400372;32;20078;-60
2023/10/30 04:39:24;;;;;;;0.30;0.30;;;12.10;99.90;;;;;;4401143;32;20086;-60
2023/10/30 04:41:49;;;;;;;0.30;0.30;;;12.10;99.90;;;;;;4405302;32;20066;-60
2023/10/30 04:44:15;;;;;;;0.88;0.77;;;12.10;99.90;;;;;;4405475;32;20152;-60
2023/10/30 04:46:40;;;;;;;0.55;0.55;;;12.10;99.90;;;;;;4403533;32;20617;-60
2023/10/30 04:49:06;;;;;;;0.40;0.40;;;12.20;99.90;;;;;;4403832;32;20070;-61
2023/10/30 04:51:31;;;;;;;0.60;0.60;;;12.20;99.90;;;;;;4403118;32;20070;-61
2023/10/30 04:53:57;;;;;;;0.88;0.62;;;12.20;99.90;;;;;;4405534;32;20069;-60
2023/10/30 04:56:22;;;;;;;0.95;0.70;;;12.10;99.90;;;;;;4386573;32;20806;-60
2023/10/30 04:58:48;;;;;;;0.40;0.40;;;12.10;99.90;;;;;;4402984;32;20129;-61
2023/10/30 05:01:13;;;;;;;0.40;0.40;;;12.10;99.90;;;;;;4404255;32;20439;-60
2023/10/30 05:03:39;;;;;;;0.40;0.40;;;12.00;99.90;;;;;;4405423;32;20066;-60
2023/10/30 05:06:05;;;;;;;2.33;1.17;;;12.00;99.90;;;;;;4403027;32;20077;-61
2023/10/30 05:08:32;;;;;;;0.30;0.30;;;12.10;99.90;;;;;;4405683;32;20065;-60
2023/10/30 05:10:59;;;;;;;0.20;0.20;;;12.00;99.90;;;;;;4406339;32;20078;-60
2023/10/30 05:13:25;;;;;;;0.30;0.30;;;12.00;99.90;;;;;;4393926;32;20458;-61
2023/10/30 05:15:50;;;;;;;0.40;0.40;;;12.00;99.90;;;;;;4406301;32;20069;-60
2023/10/30 05:18:22;;;;;;;0.30;0.30;;;12.00;99.90;;;;;;4397342;32;20102;-61
2023/10/30 05:20:47;;;;;;;0.37;0.37;;;12.00;99.90;;;;;;4401689;32;20455;-60
2023/10/30 05:23:13;;;;;;;26.77;0.60;;;12.00;99.90;;;;;;4406741;32;20092;-60
2023/10/30 05:25:38;;;;;;;1.45;1.15;;;12.00;99.90;;;;;;4401362;32;20085;-60
2023/10/30 05:28:04;;;;;;;5.15;0.68;;;12.00;99.90;;;;;;4403932;32;20066;-60
2023/10/30 05:30:30;;;;;;;0.32;0.32;;;12.00;99.90;;;;;;4401700;32;20117;-61
2023/10/30 05:32:56;;;;;;;0.50;0.50;;;12.10;99.90;;;;;;4405968;32;20054;-60
2023/10/30 05:35:21;;;;;;;0.75;0.50;;;12.10;99.90;;;;;;4403934;32;20061;-60
2023/10/30 05:37:46;;;;;;;0.40;0.40;;;12.10;99.90;;;;;;4395429;32;20164;-60
2023/10/30 05:40:13;;;;;;;0.30;0.30;;;12.10;99.90;;;;;;4403204;32;20077;-60
2023/10/30 05:42:38;;;;;;;0.70;0.70;;;12.10;99.90;;;;;;4407369;32;20061;-60
2023/10/30 05:45:04;;;;;;;0.32;0.32;;;12.10;99.90;;;;;;4408673;32;20374;-61
2023/10/30 05:47:31;;;;;;;0.40;0.40;;;12.10;99.90;;;;;;4406167;32;20066;-61
2023/10/30 05:49:57;;;;;;;0.30;0.30;;;12.10;99.90;;;;;;4401673;32;20058;-60
2023/10/30 05:52:22;;;;;;;0.30;0.30;;;12.10;99.90;;;;;;4402555;32;20085;-60
2023/10/30 05:54:48;;;;;;;2.50;0.73;;;12.10;99.90;;;;;;4406517;32;20104;-60
2023/10/30 05:57:15;;;;;;;0.30;0.30;;;12.10;99.90;;;;;;4402004;32;20094;-61
2023/10/30 05:59:41;;;;;;;0.30;0.30;;;12.10;99.90;;;;;;4403885;32;20081;-58
2023/10/30 06:02:06;;;;;;;0.30;0.30;;;12.00;99.90;;;;;;4407107;32;20073;-60
2023/10/30 06:04:31;;;;;;;0.30;0.30;;;12.10;99.90;;;;;;4404855;32;20150;-60
2023/10/30 06:06:57;;;;;;;0.30;0.30;;;12.00;99.90;;;;;;4404255;32;21218;-60
2023/10/30 06:09:22;;;;;;;0.40;0.40;;;12.00;99.90;;;;;;4409072;32;20120;-60
2023/10/30 06:11:49;;;;;;;0.30;0.30;;;12.10;99.90;;;;;;4405217;32;20557;-61
2023/10/30 06:14:15;;;;;;;0.40;0.40;;;12.10;99.90;;;;;;4407467;32;20061;-60
2023/10/30 06:16:41;;;;;;;1.08;0.50;;;12.10;99.90;;;;;;4403512;32;20098;-61
2023/10/30 06:19:07;;;;;;;0.40;0.40;;;12.00;99.90;;;;;;4403612;32;20074;-62
2023/10/30 06:21:32;;;;;;;0.40;0.40;;;12.10;99.90;;;;;;4405122;32;20390;-62
2023/10/30 06:23:58;;;;;;;0.40;0.40;;;12.10;99.90;;;;;;4402660;32;20061;-62
2023/10/30 06:26:23;;;;;;;0.30;0.30;;;12.00;99.90;;;;;;4403595;32;20089;-62
2023/10/30 06:28:49;;;;;;;0.40;0.40;;;12.10;99.90;;;;;;4403201;32;20078;-61
2023/10/30 06:31:16;;;;;;;0.40;0.40;;;12.10;99.90;;;;;;4403349;32;20086;-60
2023/10/30 06:33:43;;;;;;;0.35;0.35;;;12.10;99.90;;;;;;4408334;32;20068;-60
2023/10/30 06:36:09;;;;;;;0.30;0.30;;;12.10;99.90;;;;;;4392913;32;20065;-61
2023/10/30 06:38:35;;;;;;;0.40;0.40;;;12.10;99.90;;;;;;4384456;32;20281;-60
2023/10/30 06:41:02;;;;;;;0.30;0.30;;;12.20;99.90;;;;;;4406448;32;20424;-60
2023/10/30 06:43:27;;;;;;;0.52;0.50;;;12.20;99.90;;;;;;4405027;32;20069;-61
2023/10/30 06:46:08;;;;;;;0.30;0.30;;;12.20;99.90;;;;;;4403989;32;20073;-60
2023/10/30 06:48:33;;;;;;;;;;;12.20;99.90;;;;;;4405824;32;20073;-62
2023/10/30 06:50:59;;;;;;;0.40;0.40;;;12.20;99.90;;;;;;4404471;32;20278;-61
2023/10/30 06:53:25;;;;;;;0.30;0.30;;;12.20;99.90;;;;;;4405352;32;20062;-62
2023/10/30 06:55:51;;;;;;;0.40;0.40;;;12.30;99.90;;;;;;4406401;32;20069;-61
2023/10/30 06:58:17;;;;;;;0.40;0.40;;;12.30;99.90;;;;;;4398768;32;20069;-61
2023/10/30 07:00:43;;;;;;;0.40;0.40;;;12.20;99.90;;;;;;4406229;32;20053;-62
2023/10/30 07:03:08;;;;;;;0.40;0.40;;;12.30;99.90;;;;;;4406969;32;20156;-62
2023/10/30 07:05:34;;;;;;;0.40;0.40;;;12.40;99.90;;;;;;4408505;32;20099;-62
2023/10/30 07:08:00;;;;;;;0.55;0.55;;;12.40;99.90;;;;;;4404459;32;20094;-61
2023/10/30 07:10:25;;;;;;;0.32;0.32;;;12.40;99.90;;;;;;4405717;32;20848;-61
2023/10/30 07:12:51;;;;;;;0.40;0.40;;;12.40;99.90;;;;;;4406679;32;20062;-61
2023/10/30 07:15:16;;;;;;;0.65;0.50;;;12.50;99.90;;;;;;4407901;32;20081;-62
2023/10/30 07:17:42;;;;;;;0.30;0.30;;;12.50;99.90;;;;;;4401627;32;20596;-62
2023/10/30 07:20:08;;;;;;;5.25;1.10;;;12.50;99.90;;;;;;4406549;32;20091;-62
2023/10/30 07:22:34;;;;;;;1.48;1.37;;;12.60;99.90;;;;;;4404325;32;20102;-62
2023/10/30 07:25:00;;;;;;;0.75;0.75;;;12.60;99.90;;;;;;4402295;32;20553;-62
2023/10/30 07:27:26;;;;;;;0.65;0.65;;;12.60;99.90;;;;;;4403543;32;20065;-61
2023/10/30 07:29:52;;;;;;;0.30;0.30;;;12.70;99.90;;;;;;4405806;32;20450;-62
2023/10/30 07:32:17;;;;;;;5.82;1.02;;;12.70;99.90;;;;;;4402007;32;20130;-61
2023/10/30 07:34:43;;;;;;;0.37;0.37;;;12.80;99.90;;;;;;4406422;32;20497;-62
2023/10/30 07:37:08;;;;;;;0.40;0.40;;;12.80;99.90;;;;;;4400334;32;20062;-61
2023/10/30 07:39:34;;;;;;;0.50;0.50;;;12.80;99.90;;;;;;4402978;32;20098;-60
2023/10/30 07:42:00;;;;;;;0.40;0.40;;;12.80;99.90;;;;;;4407602;32;20453;-61
2023/10/30 07:44:26;;;;;;;0.40;0.40;;;12.90;99.90;;;;;;4402791;32;20070;-61
2023/10/30 07:46:51;;;;;;;2.35;0.60;;;13.00;99.90;;;;;;4405322;32;20475;-61
2023/10/30 07:49:17;;;;;;;5.28;0.93;;;13.00;99.90;;;;;;4402964;32;20182;-61
2023/10/30 07:51:42;;;;;;;1.10;0.82;;;13.00;99.90;;;;;;4407569;32;20173;-61
2023/10/30 07:54:08;;;;;;;2.65;0.47;;;13.10;99.90;;;;;;4407256;32;20086;-62
2023/10/30 07:56:33;;;;;;;0.50;0.50;;;13.10;99.90;;;;;;4401962;32;20157;-60
2023/10/30 07:58:59;;;;;;;0.40;0.40;;;13.20;99.90;;;;;;4399790;32;20357;-60
2023/10/30 08:01:25;;;;;;;3.40;2.15;;;13.20;99.90;;;;;;4405906;32;20170;-60
2023/10/30 08:03:51;;;;;;;0.40;0.40;;;13.30;99.90;;;;;;4406294;32;20082;-60
2023/10/30 08:06:16;;;;;;;0.37;0.37;;;13.30;99.90;;;;;;4404532;32;20066;-61
2023/10/30 08:08:42;;;;;;;0.30;0.30;;;13.40;99.90;;;;;;4406206;32;20570;-60
2023/10/30 08:11:09;;;;;;;0.43;0.43;;;13.40;99.90;;;;;;4402458;32;20106;-61
2023/10/30 08:13:35;;;;;;;0.37;0.37;;;13.40;99.90;;;;;;4406507;32;20610;-60
2023/10/30 08:16:00;;;;;;;0.65;0.65;;;13.40;99.90;;;;;;4402972;32;20112;-62
2023/10/30 08:18:25;;;;;;;0.45;0.45;;;13.40;99.90;;;;;;4401702;32;20098;-60
2023/10/30 08:20:51;;;;;;;0.50;0.50;;;13.50;99.90;;;;;;4405437;32;20066;-60
2023/10/30 08:23:17;;;;;;;0.40;0.40;;;13.40;99.90;;;;;;4405665;32;20081;-61
2023/10/30 08:25:43;;;;;;;0.47;0.47;;;13.40;99.90;;;;;;4402693;32;20084;-60
2023/10/30 08:28:08;;;;;;;0.40;0.40;;;13.40;99.90;;;;;;4401689;32;20667;-61
2023/10/30 08:30:34;;;;;;;0.50;0.50;;;13.40;99.90;;;;;;4404903;32;20193;-61
2023/10/30 08:33:03;;;;;;;0.40;0.40;;;13.40;99.90;;;;;;4405128;32;20100;-61
2023/10/30 08:35:29;;;;;;;0.62;0.62;;;13.40;99.90;;;;;;4405286;32;20437;-62
2023/10/30 08:37:57;;;;;;;0.37;0.37;;;13.50;99.90;;;;;;4397624;32;20078;-61
2023/10/30 08:40:23;;;;;;;0.57;0.57;;;13.50;99.90;;;;;;4405222;32;20065;-60
2023/10/30 08:42:48;;;;;;;4.82;1.17;;;13.50;99.90;;;;;;4403585;32;20125;-60
2023/10/30 08:45:14;;;;;;;0.47;0.47;;;13.50;99.90;;;;;;4407458;32;20228;-61
2023/10/30 08:47:39;;;;;;;2.08;0.75;;;13.60;99.90;;;;;;4404133;32;20126;-60
2023/10/30 08:50:07;;;;;;;0.32;0.32;;;13.60;99.90;;;;;;4406725;32;20065;-60
2023/10/30 08:52:32;;;;;;;0.40;0.40;;;13.60;99.90;;;;;;4403153;32;20152;-61
2023/10/30 08:54:58;;;;;;;0.40;0.40;;;13.70;99.90;;;;;;4404953;32;20113;-60
2023/10/30 08:57:24;;;;;;;0.30;0.30;;;13.70;99.90;;;;;;4399951;32;20080;-60
2023/10/30 08:59:50;;;;;;;5.35;0.75;;;13.80;99.90;;;;;;4405529;32;20485;-60
2023/10/30 09:02:15;;;;;;;0.32;0.32;;;13.90;99.90;;;;;;4402374;32;21148;-60
2023/10/30 09:04:41;;;;;;;0.30;0.30;;;13.90;99.90;;;;;;4406541;32;20108;-60
2023/10/30 09:07:06;;;;;;;0.30;0.30;;;14.00;99.90;;;;;;4405280;32;20077;-61
2023/10/30 09:09:32;;;;;;;5.82;0.55;;;14.00;99.90;;;;;;4406736;32;20466;-62
2023/10/30 09:11:58;;;;;;;0.40;0.40;;;14.00;99.90;;;;;;4405432;32;20074;-61
2023/10/30 09:14:23;;;;;;;0.40;0.40;;;14.10;99.90;;;;;;4408190;32;20526;-62
2023/10/30 09:16:49;;;;;;;0.40;0.40;;;14.10;99.90;;;;;;4399924;32;20087;-61
2023/10/30 09:19:14;;;;;;;0.32;0.32;;;14.10;99.90;;;;;;4400631;32;20128;-62
2023/10/30 09:21:40;;;;;;;0.30;0.30;;;14.20;99.90;;;;;;4405031;32;20070;-61
2023/10/30 09:24:06;;;;;;;0.60;0.60;;;14.20;99.90;;;;;;4403103;32;20120;-62
2023/10/30 09:26:31;;;;;;;0.73;0.70;;;14.30;99.90;;;;;;4400689;32;20562;-61
2023/10/30 09:28:57;;;;;;;0.50;0.50;;;14.30;99.90;;;;;;4401788;32;20117;-61
2023/10/30 09:31:22;;;;;;;0.30;0.30;;;14.40;99.90;;;;;;4400764;32;20098;-62
2023/10/30 09:33:48;;;;;;;0.30;0.30;;;14.40;99.90;;;;;;4404214;32;20077;-61
2023/10/30 09:36:14;;;;;;;0.88;0.82;;;14.40;99.90;;;;;;4400394;32;20165;-61
2023/10/30 09:38:41;;;;;;;0.50;0.50;;;14.40;99.90;;;;;;4400961;32;20077;-62
2023/10/30 09:41:10;;;;;;;0.40;0.40;;;14.40;99.90;;;;;;4404987;32;20549;-62
2023/10/30 09:43:37;;;;;;;0.40;0.40;;;14.40;99.90;;;;;;4402951;32;20062;-62
2023/10/30 09:46:06;;;;;;;0.47;0.47;;;14.40;99.90;;;;;;4404638;32;20290;-62
2023/10/30 09:48:32;;;;;;;0.50;0.50;;;14.40;99.90;;;;;;4400011;32;20170;-61
2023/10/30 09:51:00;;;;;;;0.40;0.40;;;14.50;99.90;;;;;;4400926;32;20077;-62
2023/10/30 09:53:26;;;;;;;0.35;0.35;;;14.40;99.90;;;;;;4389422;32;20106;-59
2023/10/30 09:55:54;;;;;;;0.30;0.30;;;14.50;99.90;;;;;;4402294;32;20078;-62
2023/10/30 09:58:23;;;;;;;0.70;0.70;;;14.50;99.90;;;;;;4393955;32;20054;-62
2023/10/30 10:00:48;;;;;;;0.50;0.50;;;14.60;99.90;;;;;;4405143;32;20094;-62
2023/10/30 10:03:14;;;;;;;0.40;0.40;;;14.60;99.90;;;;;;4404859;32;20848;-61
2023/10/30 10:05:39;;;;;;;0.40;0.40;;;14.70;99.90;;;;;;4402675;32;20078;-60
2023/10/30 10:08:05;;;;;;;0.70;0.70;;;14.70;99.90;;;;;;4403006;32;20113;-61
2023/10/30 10:10:55;;;;;;;0.65;0.50;;;14.70;99.90;;;;;;4399990;32;20097;-61
2023/10/30 10:13:21;;;;;;;0.60;0.60;;;14.80;99.90;;;;;;4394326;32;20525;-61
2023/10/30 10:15:48;;;;;;;0.40;0.40;;;14.80;99.90;;;;;;4403578;32;20090;-61
2023/10/30 10:18:23;;;;;;;2.17;0.60;;;14.80;99.90;;;;;;4379734;32;20109;-61
2023/10/30 10:21:08;;;;;;;1.12;0.40;;;14.70;99.90;;;;;;4402042;32;20059;-61
2023/10/30 10:23:34;;;;;;;4.85;1.15;;;14.70;99.90;;;;;;4403649;32;20582;-59
2023/10/30 10:26:05;;;;;;;0.40;0.40;;;14.70;99.90;;;;;;4402606;32;20679;-60
2023/10/30 10:28:31;;;;;;;0.30;0.30;;;14.70;99.90;;;;;;4406871;32;20078;-61
2023/10/30 10:30:58;;;;;;;0.32;0.32;;;14.70;99.90;;;;;;4405882;32;20521;-61
2023/10/30 10:33:27;;;;;;;0.30;0.30;;;14.60;99.90;;;;;;4401565;32;20073;-60
2023/10/30 10:35:54;;;;;;;0.68;0.68;;;14.80;99.90;;;;;;4403590;32;20050;-62
2023/10/30 10:38:21;;;;;;;1.10;0.70;;;14.70;99.90;;;;;;4385524;32;20065;-62
2023/10/30 10:40:47;;;;;;;0.37;0.37;;;14.70;99.90;;;;;;4406669;32;20557;-63
2023/10/30 10:43:15;;;;;;;0.60;0.60;;;14.80;99.90;;;;;;4403244;32;20609;-62
2023/10/30 10:45:42;;;;;;;0.40;0.40;;;14.80;99.90;;;;;;4403675;32;20117;-60
2023/10/30 10:48:09;;;;;;;1.20;1.00;;;14.80;99.90;;;;;;4401844;32;20082;-63
2023/10/30 10:50:35;;;;;;;0.55;0.40;;;14.80;99.90;;;;;;4400004;32;20070;-62
2023/10/30 10:53:03;;;;;;;0.40;0.40;;;14.80;99.90;;;;;;4405100;32;20066;-62
2023/10/30 10:55:33;;;;;;;0.62;0.62;;;14.80;99.90;;;;;;4403295;32;20559;-61
2023/10/30 10:58:08;;;;;;;0.40;0.40;;;14.80;99.90;;;;;;4399564;32;20236;-62
2023/10/30 11:00:40;;;;;;;0.40;0.40;;;14.80;99.90;;;;;;4391135;32;20061;-62
2023/10/30 11:03:07;;;;;;;2.55;1.05;;;14.70;99.90;;;;;;4405906;32;20430;-62
2023/10/30 11:05:35;;;;;;;0.30;0.30;;;14.70;99.90;;;;;;4404814;32;20058;-62
2023/10/30 11:08:26;;;;;;;0.30;0.30;;;14.70;99.90;;;;;;4403697;32;20532;-63
2023/10/30 11:10:56;;;;;;;;;;;14.70;99.90;;;;;;4405618;32;20406;-62
2023/10/30 11:14:03;;;;;;;0.50;0.50;;;15.00;99.90;;;;;;4395363;32;19950;-63
2023/10/30 11:16:35;;;;;;;9.38;0.57;;;15.30;99.90;;;;;;4394461;32;20109;-62
2023/10/30 11:19:00;;;;;;;12.40;0.60;;;15.60;99.90;;;;;;4402851;32;20448;-63
2023/10/30 11:21:27;;;;;;;0.20;0.20;;;15.70;99.90;;;;;;4403271;32;20086;-63
2023/10/30 11:23:56;;;;;;;0.50;0.50;;;16.00;99.90;;;;;;4405704;32;20053;-63
2023/10/30 11:26:39;;;;;;;2.60;0.57;;;16.40;99.90;;;;;;4403124;32;20074;-62
2023/10/30 11:29:08;;;;;;;0.88;0.88;;;16.90;99.90;;;;;;4405472;32;20149;-63
2023/10/30 11:31:55;;;;;;;0.50;0.50;;;17.10;99.90;;;;;;4402579;32;20097;-63
2023/10/30 11:34:28;;;;;;;0.22;0.22;;;17.20;99.90;;;;;;4408099;32;20482;-63
2023/10/30 11:36:58;;;;;;;0.62;0.60;;;17.20;99.90;;;;;;4397240;32;20112;-62
2023/10/30 11:39:24;;;;;;;4.10;1.08;;;17.30;99.90;;;;;;4401280;32;20084;-62
2023/10/30 11:41:52;;;;;;;0.30;0.30;;;17.20;99.90;;;;;;4406605;32;21598;-63
2023/10/30 11:44:18;;;;;;;0.30;0.30;;;17.10;99.90;;;;;;4408343;32;20427;-62
2023/10/30 11:46:47;;;;;;;1.95;0.25;;;16.90;99.90;;;;;;4404424;32;20074;-62
2023/10/30 11:49:14;;;;;;;0.40;0.40;;;16.80;99.90;;;;;;4386895;32;582764;-62
2023/10/30 11:51:42;;;;;;;0.50;0.50;;;16.70;99.90;;;;;;4406120;32;20078;-63
2023/10/30 11:54:08;;;;;;;0.30;0.30;;;16.60;99.90;;;;;;4403662;32;20533;-63
2023/10/30 11:56:34;;;;;;;0.50;0.50;;;16.50;99.90;;;;;;4401489;32;20094;-63
2023/10/30 11:59:02;;;;;;;2.20;0.50;;;16.40;99.90;;;;;;4401380;32;20086;-62
2023/10/30 12:01:30;;;;;;;0.20;0.20;;;16.30;99.90;;;;;;4395415;32;20075;-62
2023/10/30 12:03:56;;;;;;;0.30;0.30;;;16.20;99.90;;;;;;4407612;32;20124;-62
2023/10/30 12:06:25;;;;;;;0.43;0.43;;;16.10;99.90;;;;;;4391696;32;20137;-62
2023/10/30 12:08:51;;;;;;;2.78;1.25;;;16.10;99.90;;;;;;4403313;32;20054;-62
2023/10/30 12:11:16;;;;;;;0.68;0.68;;;16.00;99.90;;;;;;4405805;32;20090;-62
2023/10/30 12:13:42;;;;;;;0.30;0.30;;;15.90;99.90;;;;;;4404581;32;20165;-62
2023/10/30 12:16:07;;;;;;;0.50;0.50;;;15.80;99.90;;;;;;4402186;32;20073;-62
2023/10/30 12:18:35;;;;;;;0.30;0.30;;;15.80;99.90;;;;;;4401634;32;20131;-62
2023/10/30 12:21:01;;;;;;;0.40;0.40;;;15.90;99.90;;;;;;4403869;32;20074;-63
2023/10/30 12:23:29;;;;;;;0.30;0.30;;;15.90;99.90;;;;;;4404062;32;20403;-63
2023/10/30 12:26:09;;;;;;;3.20;0.70;;;16.00;99.90;;;;;;4405350;32;20061;-63
2023/10/30 12:28:36;;;;;;;;;;;16.10;99.90;;;;;;4394273;32;20156;-63
2023/10/30 12:31:22;;;;;;;0.30;0.30;;;16.10;99.90;;;;;;4405339;32;19956;-63
2023/10/30 12:34:08;;;;;;;1.27;1.17;;;16.00;99.90;;;;;;4391371;32;20174;-63
2023/10/30 12:36:34;;;;;;;4.97;0.47;;;15.70;99.90;;;;;;4397575;32;20102;-63
2023/10/30 12:39:21;;;;;;;0.40;0.40;;;15.70;99.90;;;;;;4385934;32;20782;-63
2023/10/30 12:41:51;;;;;;;0.40;0.40;;;15.90;99.90;;;;;;4405157;32;20089;-62
2023/10/30 12:44:18;;;;;;;0.47;0.47;;;16.20;99.90;;;;;;4402625;32;20113;-61
2023/10/30 12:46:44;;;;;;;0.85;0.60;;;16.40;99.90;;;;;;4386498;32;20078;-62